KDNV/DNV METAR and TAF weather

Enter ICAO airport designator
Station Type Date Time Source
KDNV METAR 2022/06/30 12:55 UTC NOAA

KDNV 301255Z AUTO 15003KT 10SM CLR 22/16 A3016 RMK AO2 T02200162


Station Type Date Time Source
KDNV Decoded METAR 2022/06/30 12:55 UTC NOAA

Danville, Vermilion County Airport, IL, United States (KDNV) 40-11-58N 087-35-44W
Jun 30, 2022 - 08:55 AM EDT / 2022.06.30 1255 UTC
Wind: from the SSE (150 degrees) at 3 MPH (3 KT):0
Visibility: 10 mile(s):0
Sky conditions: clear
Temperature: 71.6 F (22.0 C)
Dew Point: 61.2 F (16.2 C)
Relative Humidity: 69%
Pressure (altimeter): 30.16 in. Hg (1021 hPa)
ob: KDNV 301255Z AUTO 15003KT 10SM CLR 22/16 A3016 RMK AO2 T02200162
cycle: 13

Station Type Date Time Source
KDNV TAF UTC NOAA

Error!

Example: see airport list